Time;durP1;ratioP1;P1;durP2;ratioP2;P2;SDS_P1;SDS_P2;PMS_P1;PMS_P2;Temp;Humidity;BMP_temperature;BMP_pressure;BME280_temperature;BME280_humidity;BME280_pressure;Samples;Min_cycle;Max_cycle;Signal;HPM_P1;HPM_P2
2021/04/25 00:04:26;;;;;;;10.47;4.37;;;;;;;4.02;58.39;101399.81;10313278;28;20231;-74
2021/04/25 00:09:29;;;;;;;9.53;3.70;;;;;;;4.01;58.46;101390.13;10313692;28;20238;-73
2021/04/25 00:14:32;;;;;;;7.70;4.20;;;;;;;3.99;58.65;101386.66;10312187;28;20239;-74
2021/04/25 00:19:34;;;;;;;11.57;4.73;;;;;;;3.84;58.76;101388.09;10313795;28;20239;-74
2021/04/25 00:24:37;;;;;;;9.23;4.43;;;;;;;3.81;59.02;101382.00;10313019;28;20277;-73
2021/04/25 00:29:40;;;;;;;9.50;4.23;;;;;;;3.76;58.98;101376.88;10313794;28;20781;-74
2021/04/25 00:34:41;;;;;;;12.47;4.53;;;;;;;3.69;59.01;101373.56;10312794;28;20237;-74
2021/04/25 00:39:45;;;;;;;12.97;4.93;;;;;;;3.80;59.44;101375.81;10309995;28;20235;-74
2021/04/25 00:44:48;;;;;;;9.47;3.90;;;;;;;3.97;59.02;101366.34;10295953;28;20235;-74
2021/04/25 00:49:50;;;;;;;9.23;3.87;;;;;;;4.07;58.79;101375.72;10312135;28;20246;-74
2021/04/25 00:54:53;;;;;;;7.50;3.80;;;;;;;4.15;58.73;101369.19;10293054;28;20803;-74
2021/04/25 00:59:55;;;;;;;9.30;4.10;;;;;;;4.18;58.37;101366.41;10311212;28;21518;-74
2021/04/25 01:04:57;;;;;;;8.37;4.37;;;;;;;4.13;58.19;101365.72;10295996;28;20243;-74
2021/04/25 01:10:00;;;;;;;7.77;3.97;;;;;;;3.82;58.49;101368.66;10311790;28;20246;-73
2021/04/25 01:15:02;;;;;;;8.80;4.10;;;;;;;3.38;59.81;101379.13;10312129;28;20231;-73
2021/04/25 01:20:06;;;;;;;8.93;3.77;;;;;;;3.09;60.79;101366.84;10309998;28;20239;-75
2021/04/25 01:25:11;;;;;;;9.30;4.27;;;;;;;3.00;61.42;101367.16;10311354;28;20235;-75
2021/04/25 01:30:17;;;;;;;8.60;3.87;;;;;;;3.00;61.12;101372.47;10310488;28;20255;-73
2021/04/25 01:35:21;;;;;;;7.97;3.73;;;;;;;3.10;61.07;101375.66;10311600;28;20250;-74
2021/04/25 01:40:26;;;;;;;9.33;4.33;;;;;;;3.26;60.70;101374.22;10311537;28;20251;-74
2021/04/25 01:45:30;;;;;;;8.50;3.80;;;;;;;3.19;60.66;101372.72;10269867;28;20239;-73
2021/04/25 01:50:32;;;;;;;9.80;4.10;;;;;;;3.01;61.19;101376.84;10269800;28;20236;-74
2021/04/25 01:55:36;;;;;;;11.87;4.13;;;;;;;3.08;60.95;101377.53;10270345;28;20243;-73
2021/04/25 02:00:40;;;;;;;8.57;3.70;;;;;;;2.98;61.21;101377.81;10269587;28;20709;-75
2021/04/25 02:05:43;;;;;;;8.70;4.03;;;;;;;2.82;61.77;101376.59;10269806;28;20236;-74
2021/04/25 02:10:47;;;;;;;6.37;3.50;;;;;;;2.69;62.33;101378.81;10268385;28;20236;-73
2021/04/25 02:15:49;;;;;;;9.37;4.17;;;;;;;2.47;63.02;101377.69;10290415;28;20246;-73
2021/04/25 02:20:51;;;;;;;11.20;4.60;;;;;;;2.54;62.99;101380.16;10307225;28;20317;-74
2021/04/25 02:25:54;;;;;;;6.53;4.03;;;;;;;2.69;63.01;101389.41;10310343;28;20288;-73
2021/04/25 02:30:56;;;;;;;7.80;4.43;;;;;;;2.82;62.53;101390.72;10309040;28;20243;-73
2021/04/25 02:35:58;;;;;;;12.70;4.53;;;;;;;2.77;62.65;101398.00;10310809;28;20238;-74
2021/04/25 02:41:02;;;;;;;10.20;4.13;;;;;;;2.81;62.46;101382.84;10309323;28;20249;-73
2021/04/25 02:46:04;;;;;;;8.97;4.73;;;;;;;3.10;62.32;101386.28;10310948;28;20245;-73
2021/04/25 02:51:06;;;;;;;14.50;5.10;;;;;;;3.01;61.92;101390.13;10310196;28;20234;-73
2021/04/25 02:56:09;;;;;;;13.33;4.73;;;;;;;3.04;61.59;101390.03;10324809;28;20234;-74
2021/04/25 03:01:11;;;;;;;14.13;5.10;;;;;;;2.80;62.70;101397.03;10314501;28;20887;-73
2021/04/25 03:06:13;;;;;;;11.17;4.40;;;;;;;3.01;62.25;101391.00;10325327;28;20235;-74
2021/04/25 03:11:16;;;;;;;12.43;4.77;;;;;;;3.11;61.88;101386.25;10308926;28;20247;-74
2021/04/25 03:16:18;;;;;;;9.33;4.73;;;;;;;3.01;61.90;101383.03;10298668;28;20251;-72
2021/04/25 03:21:20;;;;;;;13.40;4.90;;;;;;;2.99;62.86;101379.59;10266737;28;20524;-74
2021/04/25 03:26:23;;;;;;;11.90;4.70;;;;;;;3.18;62.57;101382.47;10273139;28;20294;-73
2021/04/25 03:31:25;;;;;;;8.70;5.23;;;;;;;3.32;62.07;101389.97;10274669;28;20819;-73
2021/04/25 03:36:27;;;;;;;10.80;4.80;;;;;;;3.37;60.73;101384.47;10273826;28;20721;-73
2021/04/25 03:41:29;;;;;;;12.43;5.03;;;;;;;3.37;60.38;101380.03;10273281;28;20236;-73
2021/04/25 03:46:32;;;;;;;11.07;4.90;;;;;;;3.36;60.54;101391.59;10272579;28;20321;-74
2021/04/25 03:51:34;;;;;;;11.33;4.80;;;;;;;3.54;60.18;101392.72;10272263;28;20243;-71
2021/04/25 03:56:36;;;;;;;11.87;4.63;;;;;;;3.72;59.87;101386.72;10272063;28;20246;-74
2021/04/25 04:01:39;;;;;;;10.60;5.10;;;;;;;3.69;59.54;101397.47;10274980;28;21527;-74
2021/04/25 04:06:41;;;;;;;11.03;5.03;;;;;;;3.73;59.81;101391.16;10274677;28;20739;-75
2021/04/25 04:11:43;;;;;;;8.10;5.03;;;;;;;3.51;58.54;101382.19;10272999;28;20243;-74
2021/04/25 04:16:45;;;;;;;11.17;5.40;;;;;;;3.60;58.98;101378.38;10302845;28;20599;-74
2021/04/25 04:21:47;;;;;;;7.73;4.73;;;;;;;3.76;59.05;101381.31;10313475;28;20313;-74
2021/04/25 04:26:50;;;;;;;8.63;4.83;;;;;;;3.93;58.70;101386.88;10312497;28;20231;-74
2021/04/25 04:31:52;;;;;;;6.97;4.20;;;;;;;4.08;57.92;101378.31;10314187;28;20239;-73
2021/04/25 04:36:54;;;;;;;10.23;4.50;;;;;;;4.10;57.44;101375.59;10311114;28;20716;-71
2021/04/25 04:41:57;;;;;;;7.00;4.07;;;;;;;4.24;57.11;101375.94;10310869;28;20712;-72
2021/04/25 04:46:59;;;;;;;9.53;4.57;;;;;;;4.16;57.23;101378.88;10312999;28;20920;-73
2021/04/25 04:52:01;;;;;;;9.00;4.10;;;;;;;4.27;56.43;101382.94;10310993;28;20238;-74
2021/04/25 04:57:05;;;;;;;10.23;4.40;;;;;;;4.34;56.43;101387.09;10311111;28;20235;-74
2021/04/25 05:02:07;;;;;;;8.80;4.27;;;;;;;4.38;55.12;101394.00;10312511;28;20632;-74
2021/04/25 05:07:09;;;;;;;7.57;4.70;;;;;;;4.43;54.08;101392.03;10311862;28;20613;-73
2021/04/25 05:12:12;;;;;;;11.33;4.50;;;;;;;4.50;53.42;101390.88;10311860;28;20739;-73
2021/04/25 05:17:14;;;;;;;9.60;5.00;;;;;;;4.67;53.10;101394.66;10278949;28;20235;-75
2021/04/25 05:22:16;;;;;;;9.47;3.97;;;;;;;4.68;52.58;101394.59;10273361;28;20749;-72
2021/04/25 05:27:19;;;;;;;7.37;4.83;;;;;;;4.83;53.28;101395.78;10270588;28;20725;-72
2021/04/25 05:32:20;;;;;;;7.63;4.20;;;;;;;4.70;53.45;101406.06;10269864;28;20239;-74
2021/04/25 05:37:22;;;;;;;8.50;4.50;;;;;;;4.95;53.69;101399.72;10270772;28;20330;-73
2021/04/25 05:42:25;;;;;;;8.10;4.23;;;;;;;4.97;53.18;101406.72;10271145;28;20243;-74
2021/04/25 05:47:28;;;;;;;8.23;4.00;;;;;;;5.11;53.54;101397.34;10268706;28;20728;-73
2021/04/25 05:52:30;;;;;;;7.47;4.90;;;;;;;5.25;53.08;101408.25;10284197;28;20231;-74
2021/04/25 05:57:33;;;;;;;10.27;4.80;;;;;;;5.37;52.94;101409.53;10269285;28;20255;-74
2021/04/25 06:02:35;;;;;;;6.60;4.10;;;;;;;5.46;52.09;101409.16;10269037;28;20258;-74
2021/04/25 06:07:37;;;;;;;8.77;4.43;;;;;;;5.52;52.06;101402.69;10268516;28;20267;-73
2021/04/25 06:12:40;;;;;;;5.80;3.80;;;;;;;5.62;50.87;101410.22;10269704;28;20245;-72
2021/04/25 06:17:42;;;;;;;12.70;6.70;;;;;;;5.70;51.65;101410.75;10304967;28;20743;-74
2021/04/25 06:22:46;;;;;;;8.70;4.80;;;;;;;5.68;50.84;101417.06;10309221;28;20920;-72
2021/04/25 06:27:49;;;;;;;6.25;4.32;;;;;;;5.83;51.09;101419.03;10280196;28;20836;-74
2021/04/25 06:32:52;;;;;;;11.95;7.15;;;;;;;5.92;50.77;101431.09;10274471;28;20618;-72
2021/04/25 06:37:54;;;;;;;5.63;4.32;;;;;;;6.04;49.81;101429.69;10270616;28;20775;-73
2021/04/25 06:42:58;;;;;;;10.00;6.60;;;;;;;6.26;49.50;101432.25;10285475;28;20238;-73
2021/04/25 06:48:00;;;;;;;7.38;3.78;;;;;;;6.29;48.79;101418.75;10277191;28;20239;-74
2021/04/25 06:53:02;;;;;;;4.80;3.67;;;;;;;6.38;48.69;101437.84;10272003;28;20235;-72
2021/04/25 06:58:04;;;;;;;7.00;3.60;;;;;;;6.23;48.68;101435.91;10270040;28;20238;-74
2021/04/25 07:03:07;;;;;;;4.10;3.38;;;;;;;6.29;48.14;101434.75;10282234;28;20241;-74
2021/04/25 07:08:09;;;;;;;5.37;3.53;;;;;;;6.26;47.89;101441.09;10317496;28;20249;-74
2021/04/25 07:13:12;;;;;;;8.63;3.95;;;;;;;6.31;48.05;101446.25;10314937;28;20265;-74
2021/04/25 07:18:14;;;;;;;4.72;3.60;;;;;;;6.49;47.78;101455.16;10281627;28;20272;-74
2021/04/25 07:23:16;;;;;;;9.10;4.25;;;;;;;6.63;48.29;101456.25;10282681;28;20725;-74
2021/04/25 07:28:19;;;;;;;5.43;3.15;;;;;;;6.78;47.88;101457.31;10288470;28;20243;-74
2021/04/25 07:33:21;;;;;;;11.02;4.47;;;;;;;7.10;47.23;101456.72;10273069;28;20275;-74
2021/04/25 07:38:23;;;;;;;9.50;5.43;;;;;;;7.26;46.84;101463.91;10275466;28;20248;-74
2021/04/25 07:43:26;;;;;;;8.38;4.25;;;;;;;7.40;46.23;101468.53;10273903;28;20235;-74
2021/04/25 07:48:28;;;;;;;6.32;4.05;;;;;;;7.38;44.97;101464.25;10273516;28;20717;-74
2021/04/25 07:53:30;;;;;;;10.45;4.03;;;;;;;7.48;45.25;101466.34;10271216;28;20240;-73
2021/04/25 07:58:33;;;;;;;7.38;4.65;;;;;;;7.58;44.78;101464.09;10270100;28;20240;-74
2021/04/25 08:03:35;;;;;;;7.22;4.20;;;;;;;7.66;43.89;101461.88;10270217;28;20740;-74
2021/04/25 08:08:37;;;;;;;6.53;4.13;;;;;;;7.90;44.71;101469.59;10271280;28;20236;-73
2021/04/25 08:13:40;;;;;;;5.68;4.10;;;;;;;8.02;44.29;101462.72;10259500;28;20238;-74
2021/04/25 08:18:42;;;;;;;6.70;3.97;;;;;;;7.73;44.35;101473.13;10266231;28;20813;-74
2021/04/25 08:23:44;;;;;;;5.55;3.58;;;;;;;7.42;44.65;101472.00;10269798;28;20717;-74
2021/04/25 08:28:47;;;;;;;8.90;4.00;;;;;;;7.50;44.57;101469.81;10282243;28;20590;-74
2021/04/25 08:33:49;;;;;;;8.57;4.22;;;;;;;7.79;44.40;101482.63;10272964;28;20614;-74
2021/04/25 08:38:51;;;;;;;10.40;4.53;;;;;;;7.65;44.64;101478.88;10271532;28;20244;-74
2021/04/25 08:43:56;;;;;;;9.35;4.85;;;;;;;8.17;43.77;101477.94;10272066;28;20292;-75
2021/04/25 08:48:58;;;;;;;10.90;3.60;;;;;;;8.23;42.99;101480.31;10266063;28;21498;-74
2021/04/25 08:54:01;;;;;;;9.98;4.20;;;;;;;8.53;42.43;101472.44;10271288;28;20255;-74
2021/04/25 08:59:05;;;;;;;12.07;4.75;;;;;;;8.68;41.91;101470.72;10271696;28;20584;-74
2021/04/25 09:04:07;;;;;;;10.77;3.45;;;;;;;8.97;41.38;101463.72;10267763;28;20257;-74
2021/04/25 09:09:09;;;;;;;5.53;3.30;;;;;;;9.29;41.08;101459.16;10267013;28;20342;-74
2021/04/25 09:14:20;;;;;;;7.32;3.42;;;;;;;9.33;41.17;101465.22;10279201;28;20338;-74
2021/04/25 09:19:22;;;;;;;5.53;3.17;;;;;;;9.68;40.21;101470.28;10264131;28;20243;-73
2021/04/25 09:24:26;;;;;;;5.03;3.40;;;;;;;9.72;40.44;101467.34;10272219;28;20236;-73
2021/04/25 09:29:48;;;;;;;11.45;4.80;;;;;;;9.83;39.66;101471.19;10265844;28;20240;-73
2021/04/25 09:34:50;;;;;;;6.82;3.13;;;;;;;9.56;39.59;101474.56;10290339;28;20243;-73
2021/04/25 09:40:00;;;;;;;5.40;2.60;;;;;;;9.65;39.06;101471.34;10312191;28;21391;-73
2021/04/25 09:45:22;;;;;;;6.57;3.28;;;;;;;10.08;39.66;101476.81;10311846;28;20246;-73
2021/04/25 09:50:25;;;;;;;11.88;4.45;;;;;;;10.41;38.83;101472.97;10307738;28;20250;-75
2021/04/25 09:55:28;;;;;;;3.15;2.80;;;;;;;9.81;39.28;101475.78;10307003;28;20254;-72
2021/04/25 10:00:39;;;;;;;8.00;2.70;;;;;;;9.98;38.84;101472.97;10304999;28;20246;-72
2021/04/25 10:05:57;;;;;;;3.60;2.20;;;;;;;9.56;39.24;101462.97;10274764;28;21435;-72
2021/04/25 10:11:02;;;;;;;6.10;2.70;;;;;;;9.68;41.10;101472.97;10265790;28;20235;-73
2021/04/25 10:16:06;;;;;;;5.35;3.60;;;;;;;10.59;38.87;101473.66;10277700;28;20321;-73
2021/04/25 10:21:09;;;;;;;4.72;2.60;;;;;;;10.77;38.13;101471.59;10267231;28;20911;-73
2021/04/25 10:26:13;;;;;;;18.80;7.97;;;;;;;10.96;37.59;101465.88;10268288;28;20377;-73
2021/04/25 10:31:19;;;;;;;13.55;5.88;;;;;;;11.10;36.62;101459.59;10269484;28;20244;-73
2021/04/25 10:36:22;;;;;;;6.60;2.92;;;;;;;9.98;37.90;101456.84;10263904;28;20274;-72
2021/04/25 10:41:26;;;;;;;7.60;3.97;;;;;;;10.78;37.92;101454.53;10266568;28;20262;-71
2021/04/25 10:47:06;;;;;;;8.77;2.83;;;;;;;11.52;37.08;101450.50;10302193;28;20246;-71
2021/04/25 10:52:20;;;;;;;6.03;2.70;;;;;;;11.95;36.12;101447.53;10305758;28;20761;-74
2021/04/25 10:57:22;;;;;;;7.97;2.58;;;;;;;12.21;35.30;101450.22;10309891;28;20250;-73
2021/04/25 11:02:46;;;;;;;6.63;2.78;;;;;;;11.60;36.71;101445.47;10312552;28;20239;-71
2021/04/25 11:07:49;;;;;;;4.05;2.35;;;;;;;11.99;36.38;101432.03;10306800;28;20242;-72
2021/04/25 11:12:51;;;;;;;7.00;3.55;;;;;;;13.70;33.84;101431.97;10307266;28;20285;-74
2021/04/25 11:17:54;;;;;;;4.65;2.28;;;;;;;14.74;31.95;101423.66;10326503;28;20238;-73
2021/04/25 11:22:56;;;;;;;2.65;2.33;;;;;;;15.38;31.22;101416.56;10345327;28;20642;-70
2021/04/25 11:27:59;;;;;;;5.28;2.47;;;;;;;15.46;30.33;101417.63;10348131;28;21387;-72
2021/04/25 11:33:33;;;;;;;5.68;2.42;;;;;;;14.57;31.58;101416.94;10272438;28;20385;-72
2021/04/25 11:38:36;;;;;;;4.20;2.33;;;;;;;12.33;34.33;101417.03;10263185;28;20387;-74
2021/04/25 11:43:41;;;;;;;6.03;2.55;;;;;;;10.92;36.44;101413.28;10268459;28;20236;-72
2021/04/25 11:48:55;;;;;;;7.22;2.83;;;;;;;12.49;35.73;101403.31;10271446;28;20256;-71
2021/04/25 11:53:58;;;;;;;7.05;2.75;;;;;;;14.06;32.24;101405.75;10273327;28;20725;-71
2021/04/25 11:59:07;;;;;;;3.97;2.40;;;;;;;12.21;34.74;101397.22;10270925;28;20243;-71
2021/04/25 12:04:10;;;;;;;6.65;3.10;;;;;;;11.81;35.37;101402.72;10270801;28;20239;-72
2021/04/25 12:09:12;;;;;;;11.60;4.53;;;;;;;13.76;32.39;101404.47;10295251;28;20231;-71
2021/04/25 12:14:18;;;;;;;6.43;2.72;;;;;;;14.48;31.60;101403.28;10285183;28;20747;-72
2021/04/25 12:19:22;;;;;;;9.68;5.07;;;;;;;15.54;30.44;101397.16;10311997;28;20246;-72
2021/04/25 12:24:24;;;;;;;6.80;2.85;;;;;;;17.29;27.72;101385.06;10294110;28;20239;-73
2021/04/25 12:29:33;;;;;;;7.55;4.03;;;;;;;15.39;29.65;101394.78;10272912;28;20247;-73
2021/04/25 12:34:36;;;;;;;6.60;3.88;;;;;;;14.17;31.27;101405.75;10270924;28;20239;-73
2021/04/25 12:39:41;;;;;;;15.60;7.38;;;;;;;15.28;31.22;101386.69;10268159;28;20239;-73
2021/04/25 12:44:43;;;;;;;7.63;3.72;;;;;;;17.05;28.60;101385.44;10269615;28;20227;-73
2021/04/25 12:49:46;;;;;;;5.00;2.72;;;;;;;17.07;27.37;101375.31;10269796;28;20273;-73
2021/04/25 12:54:48;;;;;;;3.45;2.65;;;;;;;14.42;30.42;101374.06;10273125;28;20243;-74
2021/04/25 12:59:49;;;;;;;6.38;3.10;;;;;;;15.71;29.13;101372.16;10269752;28;20243;-73
2021/04/25 13:04:52;;;;;;;6.53;2.88;;;;;;;14.99;29.25;101370.22;10272134;28;20232;-73
2021/04/25 13:10:15;;;;;;;5.20;3.10;;;;;;;17.31;27.38;101357.75;10268151;28;22002;-74
2021/04/25 13:15:27;;;;;;;9.02;3.88;;;;;;;17.50;28.00;101362.28;10304195;28;20774;-74
2021/04/25 13:20:35;;;;;;;3.53;2.70;;;;;;;16.28;28.78;101365.31;10351818;28;20665;-73
2021/04/25 13:25:39;;;;;;;6.70;2.83;;;;;;;14.46;30.11;101351.22;10349284;28;20226;-73
2021/04/25 13:30:43;;;;;;;8.60;3.85;;;;;;;16.23;28.87;101351.28;10351516;28;20230;-73
2021/04/25 13:35:47;;;;;;;6.32;2.83;;;;;;;18.52;25.50;101344.16;10349254;28;20242;-74
2021/04/25 13:40:51;;;;;;;4.57;2.50;;;;;;;17.04;26.12;101340.31;10349630;28;20723;-73
2021/04/25 13:45:54;;;;;;;4.35;2.28;;;;;;;16.33;26.18;101332.38;10349856;28;20234;-73
2021/04/25 13:50:57;;;;;;;9.77;3.83;;;;;;;15.18;28.69;101339.75;10351173;28;20245;-73
2021/04/25 13:55:59;;;;;;;3.80;3.33;;;;;;;14.31;30.82;101328.94;10333660;28;20242;-73
2021/04/25 14:01:01;;;;;;;4.20;3.17;;;;;;;14.59;30.33;101336.56;10349114;28;20230;-72
2021/04/25 14:06:04;;;;;;;7.88;4.10;;;;;;;14.48;30.43;101328.47;10349333;28;20227;-74
2021/04/25 14:11:06;;;;;;;5.40;3.28;;;;;;;14.86;30.37;101321.69;10347273;28;20241;-74
2021/04/25 14:16:09;;;;;;;5.32;3.00;;;;;;;16.86;27.12;101317.59;10325675;28;20238;-75
2021/04/25 14:21:15;;;;;;;5.78;3.00;;;;;;;17.51;25.86;101323.28;10307667;28;20239;-72
2021/04/25 14:26:17;;;;;;;4.72;2.70;;;;;;;18.47;25.36;101310.25;10308916;28;20246;-73
2021/04/25 14:31:19;;;;;;;5.88;3.22;;;;;;;19.96;23.78;101314.84;10308721;28;20728;-73
2021/04/25 14:36:22;;;;;;;5.82;2.72;;;;;;;16.77;26.79;101312.03;10307815;28;20720;-71
2021/04/25 14:41:24;;;;;;;3.33;2.40;;;;;;;16.17;27.74;101307.63;10305671;28;20243;-72
2021/04/25 14:46:27;;;;;;;6.95;3.40;;;;;;;16.97;26.71;101298.44;10308601;28;20227;-72
2021/04/25 14:51:32;;;;;;;4.57;2.95;;;;;;;15.47;28.24;101302.09;10306792;28;20247;-72
2021/04/25 14:56:35;;;;;;;5.43;2.80;;;;;;;15.76;27.98;101304.06;10306718;28;20250;-73
2021/04/25 15:01:37;;;;;;;9.80;4.45;;;;;;;14.73;29.20;101308.34;10309513;28;21270;-73
2021/04/25 15:06:39;;;;;;;4.55;2.25;;;;;;;14.06;29.55;101298.53;10307615;28;20942;-72
2021/04/25 15:11:41;;;;;;;4.35;3.00;;;;;;;13.74;30.62;101300.28;10305457;28;20266;-73
2021/04/25 15:16:43;;;;;;;12.10;5.60;;;;;;;13.47;31.28;101299.66;10335639;28;20238;-75
2021/04/25 15:21:46;;;;;;;5.00;2.83;;;;;;;13.86;29.93;101300.16;10351743;28;20329;-72
2021/04/25 15:26:48;;;;;;;7.93;3.72;;;;;;;13.46;31.13;101295.22;10353616;28;20620;-72
2021/04/25 15:31:51;;;;;;;6.28;3.33;;;;;;;12.78;32.15;101301.38;10353856;28;20234;-72
2021/04/25 15:36:53;;;;;;;5.78;2.63;;;;;;;12.48;32.46;101291.97;10353535;28;20234;-72
2021/04/25 15:41:56;;;;;;;5.25;2.55;;;;;;;13.37;32.96;101292.41;10353771;28;20238;-73
2021/04/25 15:46:58;;;;;;;5.32;3.33;;;;;;;16.43;27.68;101286.28;10353717;28;20237;-72
2021/04/25 15:52:00;;;;;;;4.43;2.65;;;;;;;18.31;25.56;101276.41;10353741;28;20260;-72
2021/04/25 15:57:03;;;;;;;4.28;2.50;;;;;;;18.71;25.09;101274.28;10353957;28;20250;-73
2021/04/25 16:02:05;;;;;;;5.35;2.72;;;;;;;19.37;24.04;101270.22;10352903;28;20238;-73
2021/04/25 16:07:07;;;;;;;4.28;2.00;;;;;;;18.85;24.47;101279.19;10353337;28;20238;-74
2021/04/25 16:12:09;;;;;;;3.50;2.58;;;;;;;18.71;24.08;101277.00;10351628;28;20231;-72
2021/04/25 16:17:12;;;;;;;4.88;2.40;;;;;;;16.44;25.98;101272.59;10318578;28;20246;-72
2021/04/25 16:22:15;;;;;;;4.80;2.30;;;;;;;15.94;26.74;101278.03;10312660;28;21580;-72
2021/04/25 16:27:17;;;;;;;4.50;2.58;;;;;;;17.20;25.75;101277.31;10311892;28;20243;-73
2021/04/25 16:32:19;;;;;;;2.65;2.20;;;;;;;17.46;24.76;101266.66;10311231;28;20242;-71
2021/04/25 16:37:23;;;;;;;2.83;2.47;;;;;;;17.70;25.14;101272.44;10312364;28;21479;-74
2021/04/25 16:42:25;;;;;;;4.40;2.35;;;;;;;16.88;25.89;101274.91;10308291;28;20235;-73
2021/04/25 16:47:27;;;;;;;3.25;1.77;;;;;;;17.08;25.84;101270.28;10309691;28;20243;-73
2021/04/25 16:52:30;;;;;;;3.22;2.05;;;;;;;16.25;26.36;101269.84;10309326;28;20237;-72
2021/04/25 16:57:32;;;;;;;3.47;2.60;;;;;;;15.30;28.41;101271.00;10312996;28;20619;-72
2021/04/25 17:02:34;;;;;;;3.00;1.92;;;;;;;16.43;26.49;101262.78;10293589;28;20243;-71
2021/04/25 17:07:38;;;;;;;3.13;2.10;;;;;;;17.14;25.87;101253.44;10312994;28;20246;-74
2021/04/25 17:12:40;;;;;;;4.32;1.90;;;;;;;17.05;25.66;101252.44;10311928;28;20269;-73
2021/04/25 17:17:43;;;;;;;3.70;2.10;;;;;;;19.75;22.54;101249.84;10330577;28;20250;-73
2021/04/25 17:22:46;;;;;;;3.78;2.20;;;;;;;20.65;21.31;101243.75;10337449;28;20638;-76
2021/04/25 17:27:50;;;;;;;6.38;1.98;;;;;;;18.33;23.81;101246.34;10285014;28;20326;-76
2021/04/25 17:32:53;;;;;;;5.28;1.90;;;;;;;18.34;24.01;101242.63;10271633;28;20243;-72
2021/04/25 17:37:56;;;;;;;1.70;1.60;;;;;;;17.79;24.18;101235.34;10302570;28;20274;-72
2021/04/25 17:42:58;;;;;;;4.05;2.10;;;;;;;16.30;25.31;101227.78;10301652;28;20266;-73
2021/04/25 17:48:00;;;;;;;5.95;2.33;;;;;;;14.04;28.72;101230.28;10312123;28;20231;-73
2021/04/25 17:53:03;;;;;;;3.40;1.77;;;;;;;12.75;30.12;101229.72;10292830;28;20375;-71
2021/04/25 17:58:05;;;;;;;2.25;1.73;;;;;;;12.18;31.54;101227.72;10288117;28;20642;-72
2021/04/25 18:03:06;;;;;;;3.63;2.30;;;;;;;11.58;32.32;101228.56;10306096;28;20239;-72
2021/04/25 18:08:10;;;;;;;5.05;1.80;;;;;;;11.18;33.73;101228.69;10289481;28;20240;-72
2021/04/25 18:13:12;;;;;;;3.08;1.85;;;;;;;10.64;33.68;101228.81;10271762;28;20236;-75
2021/04/25 18:18:14;;;;;;;4.05;2.63;;;;;;;10.32;34.43;101226.50;10277928;28;20247;-74
2021/04/25 18:23:17;;;;;;;6.47;2.47;;;;;;;10.04;34.41;101222.06;10273880;28;20231;-72
2021/04/25 18:28:19;;;;;;;3.75;1.95;;;;;;;9.91;35.08;101224.69;10268911;28;20751;-72
2021/04/25 18:33:29;;;;;;;5.32;2.13;;;;;;;9.72;35.09;101220.47;10270312;28;20235;-72
2021/04/25 18:38:33;;;;;;;4.50;2.70;;;;;;;9.51;35.99;101224.53;10269832;28;20243;-72
2021/04/25 18:43:35;;;;;;;5.22;2.67;;;;;;;9.33;36.46;101236.44;10276541;28;20236;-74
2021/04/25 18:48:37;;;;;;;6.10;3.33;;;;;;;9.15;36.93;101233.91;10271564;28;21509;-74
2021/04/25 18:53:41;;;;;;;4.20;2.75;;;;;;;9.03;36.92;101232.00;10280146;28;20242;-74
2021/04/25 18:58:43;;;;;;;8.73;3.97;;;;;;;8.94;37.13;101232.53;10278939;28;20989;-73
2021/04/25 19:03:51;;;;;;;6.63;3.17;;;;;;;8.78;37.61;101233.50;10283175;28;20743;-74
2021/04/25 19:09:00;;;;;;;4.57;3.20;;;;;;;8.68;38.10;101236.81;10290003;28;20525;-72
2021/04/25 19:14:06;;;;;;;6.93;2.85;;;;;;;8.56;38.02;101233.06;10296797;28;20230;-73
2021/04/25 19:19:11;;;;;;;4.05;2.85;;;;;;;8.51;37.94;101241.34;10288420;28;20239;-72
2021/04/25 19:24:14;;;;;;;4.22;3.38;;;;;;;8.40;37.71;101239.25;10279555;28;20246;-73
2021/04/25 19:29:16;;;;;;;5.65;3.95;;;;;;;8.33;38.77;101245.06;10278542;28;20239;-71
2021/04/25 19:34:18;;;;;;;6.90;3.63;;;;;;;8.20;37.94;101239.56;10279834;28;20236;-72
2021/04/25 19:39:21;;;;;;;6.95;3.83;;;;;;;8.07;38.56;101236.72;10277310;28;20729;-72
2021/04/25 19:44:24;;;;;;;5.35;3.67;;;;;;;8.01;39.33;101236.19;10278427;28;20804;-74
2021/04/25 19:49:26;;;;;;;7.75;3.28;;;;;;;7.95;39.25;101246.31;10278789;28;20261;-72
2021/04/25 19:54:29;;;;;;;5.35;3.50;;;;;;;7.86;38.58;101235.25;10280084;28;20239;-71
2021/04/25 19:59:31;;;;;;;6.97;4.18;;;;;;;7.83;38.91;101249.66;10271570;28;20727;-73
2021/04/25 20:04:33;;;;;;;5.15;3.85;;;;;;;7.76;39.58;101250.09;10282379;28;20238;-73
2021/04/25 20:09:36;;;;;;;7.55;3.80;;;;;;;7.69;39.71;101246.91;10271828;28;20235;-72
2021/04/25 20:14:38;;;;;;;9.48;4.07;;;;;;;7.56;39.58;101251.19;10286203;28;20242;-71
2021/04/25 20:19:43;;;;;;;4.53;3.85;;;;;;;7.53;39.86;101246.00;10313194;28;20712;-72
2021/04/25 20:24:45;;;;;;;6.13;5.00;;;;;;;7.49;40.28;101253.34;10310381;28;20235;-71
2021/04/25 20:29:47;;;;;;;7.20;5.18;;;;;;;7.34;40.46;101254.16;10310535;28;20294;-72
2021/04/25 20:34:49;;;;;;;6.93;5.32;;;;;;;7.21;40.55;101257.50;10275604;28;20290;-72
2021/04/25 20:39:52;;;;;;;8.18;6.05;;;;;;;7.11;40.73;101242.91;10279739;28;20243;-73
2021/04/25 20:44:54;;;;;;;7.22;5.80;;;;;;;7.05;41.05;101256.59;10270541;28;20272;-72
2021/04/25 20:49:56;;;;;;;12.18;7.03;;;;;;;6.95;40.77;101248.19;10265029;28;20231;-71
2021/04/25 20:54:59;;;;;;;9.25;6.90;;;;;;;6.85;40.92;101247.75;10278293;28;20231;-73
2021/04/25 21:00:02;;;;;;;10.82;6.90;;;;;;;6.83;41.05;101249.66;10295576;28;20246;-73
2021/04/25 21:05:04;;;;;;;9.30;6.68;;;;;;;6.83;41.12;101235.44;10280061;28;20737;-70
2021/04/25 21:10:10;;;;;;;9.77;5.80;;;;;;;6.69;41.46;101232.59;10337053;28;20237;-71
2021/04/25 21:15:14;;;;;;;8.07;5.13;;;;;;;6.60;41.55;101228.59;10335793;28;20601;-71
2021/04/25 21:20:16;;;;;;;9.63;5.40;;;;;;;6.51;41.54;101227.25;10313415;28;20940;-72
2021/04/25 21:25:21;;;;;;;8.68;5.35;;;;;;;6.45;41.98;101227.56;10300293;28;20318;-72
2021/04/25 21:30:23;;;;;;;9.65;5.10;;;;;;;6.46;42.34;101228.44;10287809;28;20242;-72
2021/04/25 21:35:25;;;;;;;8.02;5.32;;;;;;;6.35;42.64;101218.28;10276860;28;20827;-71
2021/04/25 21:40:28;;;;;;;6.57;4.93;;;;;;;6.21;43.02;101210.97;10268563;28;20244;-72
2021/04/25 21:45:30;;;;;;;7.05;4.90;;;;;;;6.06;44.23;101215.28;10307060;28;20231;-71
2021/04/25 21:50:34;;;;;;;6.28;5.00;;;;;;;5.87;44.69;101206.41;10294727;28;20644;-72
2021/04/25 21:55:44;;;;;;;7.38;5.05;;;;;;;5.62;45.49;101209.41;10314163;28;20239;-73
2021/04/25 22:00:48;;;;;;;7.83;5.30;;;;;;;5.54;45.50;101207.13;10309896;28;20599;-72
2021/04/25 22:05:52;;;;;;;6.07;4.75;;;;;;;5.56;45.36;101201.69;10312210;28;20234;-71
2021/04/25 22:10:58;;;;;;;7.40;4.40;;;;;;;5.54;45.42;101207.13;10312162;28;20241;-71
2021/04/25 22:16:00;;;;;;;8.02;4.85;;;;;;;5.53;45.46;101189.38;10334339;28;20242;-71
2021/04/25 22:21:03;;;;;;;6.72;4.10;;;;;;;5.31;46.46;101196.66;10349563;28;20357;-71
2021/04/25 22:26:06;;;;;;;5.17;3.67;;;;;;;5.18;47.02;101188.34;10352070;28;20265;-75
2021/04/25 22:31:08;;;;;;;4.43;3.60;;;;;;;5.08;47.65;101187.06;10349975;28;20738;-72
2021/04/25 22:36:10;;;;;;;4.20;3.30;;;;;;;5.01;47.85;101178.47;10334675;28;20766;-72
2021/04/25 22:41:13;;;;;;;5.20;3.70;;;;;;;5.02;47.88;101177.56;10350515;28;20229;-72
2021/04/25 22:46:15;;;;;;;4.40;3.58;;;;;;;4.96;48.18;101173.31;10349199;28;20238;-72
2021/04/25 22:51:18;;;;;;;5.97;3.57;;;;;;;4.84;48.30;101169.41;10350088;28;20261;-72
2021/04/25 22:56:20;;;;;;;4.63;3.20;;;;;;;4.79;48.45;101168.75;10349402;28;20806;-74
2021/04/25 23:01:22;;;;;;;6.33;3.13;;;;;;;4.74;48.45;101172.53;10350231;28;20249;-72
2021/04/25 23:06:24;;;;;;;5.17;3.23;;;;;;;4.74;48.37;101164.56;10348349;28;20229;-72
2021/04/25 23:11:27;;;;;;;5.03;2.92;;;;;;;4.68;48.58;101175.47;10346133;28;20638;-73
2021/04/25 23:16:29;;;;;;;5.77;2.80;;;;;;;4.64;48.66;101166.78;10322319;28;20265;-71
2021/04/25 23:21:31;;;;;;;4.77;3.13;;;;;;;4.66;48.46;101172.00;10307960;28;21544;-71
2021/04/25 23:26:34;;;;;;;4.97;3.07;;;;;;;4.56;48.56;101172.41;10287427;28;20234;-71